sensor_id;sensor_type;location;lat;lon;timestamp;P1;durP1;ratioP1;P2;durP2;ratioP2
15818;SDS011;8010;53.986;12.106;2024-02-14T00:00:05;7.60;;;3.50;;
15818;SDS011;8010;53.986;12.106;2024-02-14T00:02:34;6.47;;;3.43;;
15818;SDS011;8010;53.986;12.106;2024-02-14T00:05:01;7.80;;;3.50;;
15818;SDS011;8010;53.986;12.106;2024-02-14T00:07:28;7.20;;;3.70;;
15818;SDS011;8010;53.986;12.106;2024-02-14T00:09:53;8.03;;;3.67;;
15818;SDS011;8010;53.986;12.106;2024-02-14T00:12:19;8.33;;;3.50;;
15818;SDS011;8010;53.986;12.106;2024-02-14T00:14:45;8.43;;;3.53;;
15818;SDS011;8010;53.986;12.106;2024-02-14T00:17:10;6.27;;;3.43;;
15818;SDS011;8010;53.986;12.106;2024-02-14T00:19:36;5.77;;;3.33;;
15818;SDS011;8010;53.986;12.106;2024-02-14T00:22:01;6.00;;;2.90;;
15818;SDS011;8010;53.986;12.106;2024-02-14T00:24:27;5.07;;;2.93;;
15818;SDS011;8010;53.986;12.106;2024-02-14T00:26:54;6.17;;;3.50;;
15818;SDS011;8010;53.986;12.106;2024-02-14T00:29:21;6.20;;;3.50;;
15818;SDS011;8010;53.986;12.106;2024-02-14T00:31:47;6.33;;;3.00;;
15818;SDS011;8010;53.986;12.106;2024-02-14T00:34:13;4.37;;;3.03;;
15818;SDS011;8010;53.986;12.106;2024-02-14T00:36:38;8.50;;;3.27;;
15818;SDS011;8010;53.986;12.106;2024-02-14T00:39:04;7.73;;;2.73;;
15818;SDS011;8010;53.986;12.106;2024-02-14T00:41:29;4.23;;;2.87;;
15818;SDS011;8010;53.986;12.106;2024-02-14T00:43:55;4.93;;;3.00;;
15818;SDS011;8010;53.986;12.106;2024-02-14T00:46:21;4.60;;;3.17;;
15818;SDS011;8010;53.986;12.106;2024-02-14T00:48:47;5.83;;;3.20;;
15818;SDS011;8010;53.986;12.106;2024-02-14T00:51:12;5.37;;;3.03;;
15818;SDS011;8010;53.986;12.106;2024-02-14T00:53:38;7.03;;;3.00;;
15818;SDS011;8010;53.986;12.106;2024-02-14T00:56:04;5.53;;;3.03;;
15818;SDS011;8010;53.986;12.106;2024-02-14T00:58:30;4.17;;;2.80;;
15818;SDS011;8010;53.986;12.106;2024-02-14T01:00:56;5.37;;;2.73;;
15818;SDS011;8010;53.986;12.106;2024-02-14T01:03:22;3.73;;;2.30;;
15818;SDS011;8010;53.986;12.106;2024-02-14T01:05:48;4.67;;;2.63;;
15818;SDS011;8010;53.986;12.106;2024-02-14T01:08:13;6.07;;;2.60;;
15818;SDS011;8010;53.986;12.106;2024-02-14T01:10:39;6.40;;;2.43;;
15818;SDS011;8010;53.986;12.106;2024-02-14T01:13:05;5.73;;;2.43;;
15818;SDS011;8010;53.986;12.106;2024-02-14T01:15:31;6.57;;;2.33;;
15818;SDS011;8010;53.986;12.106;2024-02-14T01:17:58;3.90;;;2.07;;
15818;SDS011;8010;53.986;12.106;2024-02-14T01:20:23;3.00;;;2.27;;
15818;SDS011;8010;53.986;12.106;2024-02-14T01:22:49;3.43;;;2.80;;
15818;SDS011;8010;53.986;12.106;2024-02-14T01:25:14;3.90;;;2.67;;
15818;SDS011;8010;53.986;12.106;2024-02-14T01:27:40;4.83;;;2.33;;
15818;SDS011;8010;53.986;12.106;2024-02-14T01:30:06;2.80;;;2.23;;
15818;SDS011;8010;53.986;12.106;2024-02-14T01:32:32;3.67;;;2.63;;
15818;SDS011;8010;53.986;12.106;2024-02-14T01:34:58;4.77;;;2.70;;
15818;SDS011;8010;53.986;12.106;2024-02-14T01:37:24;4.70;;;2.70;;
15818;SDS011;8010;53.986;12.106;2024-02-14T01:39:50;4.73;;;2.37;;
15818;SDS011;8010;53.986;12.106;2024-02-14T01:42:15;8.07;;;2.53;;
15818;SDS011;8010;53.986;12.106;2024-02-14T01:44:41;5.40;;;2.57;;
15818;SDS011;8010;53.986;12.106;2024-02-14T01:47:08;4.73;;;2.20;;
15818;SDS011;8010;53.986;12.106;2024-02-14T01:49:35;4.23;;;2.00;;
15818;SDS011;8010;53.986;12.106;2024-02-14T01:52:01;3.93;;;2.70;;
15818;SDS011;8010;53.986;12.106;2024-02-14T01:54:29;5.10;;;2.20;;
15818;SDS011;8010;53.986;12.106;2024-02-14T01:56:55;4.20;;;2.70;;
15818;SDS011;8010;53.986;12.106;2024-02-14T01:59:23;9.47;;;2.83;;
15818;SDS011;8010;53.986;12.106;2024-02-14T02:01:49;5.17;;;1.97;;
15818;SDS011;8010;53.986;12.106;2024-02-14T02:04:16;4.47;;;2.57;;
15818;SDS011;8010;53.986;12.106;2024-02-14T02:06:43;4.93;;;2.80;;
15818;SDS011;8010;53.986;12.106;2024-02-14T02:09:09;2.93;;;2.20;;
15818;SDS011;8010;53.986;12.106;2024-02-14T02:11:47;5.17;;;2.40;;
15818;SDS011;8010;53.986;12.106;2024-02-14T02:14:15;3.57;;;2.30;;
15818;SDS011;8010;53.986;12.106;2024-02-14T02:16:44;4.80;;;2.43;;
15818;SDS011;8010;53.986;12.106;2024-02-14T02:19:11;5.30;;;1.93;;
15818;SDS011;8010;53.986;12.106;2024-02-14T02:21:36;2.73;;;2.23;;
15818;SDS011;8010;53.986;12.106;2024-02-14T02:24:02;3.97;;;2.47;;
15818;SDS011;8010;53.986;12.106;2024-02-14T02:26:28;4.57;;;2.40;;
15818;SDS011;8010;53.986;12.106;2024-02-14T02:28:53;3.67;;;2.37;;
15818;SDS011;8010;53.986;12.106;2024-02-14T02:31:19;3.40;;;2.30;;
15818;SDS011;8010;53.986;12.106;2024-02-14T02:33:45;4.47;;;2.27;;
15818;SDS011;8010;53.986;12.106;2024-02-14T02:36:11;4.40;;;2.50;;
15818;SDS011;8010;53.986;12.106;2024-02-14T02:38:36;4.00;;;2.20;;
15818;SDS011;8010;53.986;12.106;2024-02-14T02:41:03;4.00;;;2.30;;
15818;SDS011;8010;53.986;12.106;2024-02-14T02:43:31;3.73;;;2.20;;
15818;SDS011;8010;53.986;12.106;2024-02-14T02:45:57;9.23;;;3.27;;
15818;SDS011;8010;53.986;12.106;2024-02-14T02:48:23;3.03;;;2.13;;
15818;SDS011;8010;53.986;12.106;2024-02-14T02:50:48;5.27;;;2.40;;
15818;SDS011;8010;53.986;12.106;2024-02-14T02:53:15;3.80;;;2.00;;
15818;SDS011;8010;53.986;12.106;2024-02-14T02:55:41;4.03;;;2.40;;
15818;SDS011;8010;53.986;12.106;2024-02-14T02:58:06;3.27;;;2.30;;
15818;SDS011;8010;53.986;12.106;2024-02-14T03:00:32;6.37;;;2.50;;
15818;SDS011;8010;53.986;12.106;2024-02-14T03:02:58;6.60;;;2.43;;
15818;SDS011;8010;53.986;12.106;2024-02-14T03:05:24;4.00;;;2.20;;
15818;SDS011;8010;53.986;12.106;2024-02-14T03:07:50;6.67;;;2.40;;
15818;SDS011;8010;53.986;12.106;2024-02-14T03:10:17;4.60;;;2.43;;
15818;SDS011;8010;53.986;12.106;2024-02-14T03:12:49;4.33;;;2.13;;
15818;SDS011;8010;53.986;12.106;2024-02-14T03:15:15;3.60;;;2.30;;
15818;SDS011;8010;53.986;12.106;2024-02-14T03:17:41;4.47;;;2.33;;
15818;SDS011;8010;53.986;12.106;2024-02-14T03:20:07;3.07;;;2.13;;
15818;SDS011;8010;53.986;12.106;2024-02-14T03:22:40;3.97;;;2.27;;
15818;SDS011;8010;53.986;12.106;2024-02-14T03:25:20;3.60;;;2.10;;
15818;SDS011;8010;53.986;12.106;2024-02-14T03:27:46;5.90;;;2.00;;
15818;SDS011;8010;53.986;12.106;2024-02-14T03:30:14;3.23;;;2.10;;
15818;SDS011;8010;53.986;12.106;2024-02-14T03:32:41;3.27;;;2.50;;
15818;SDS011;8010;53.986;12.106;2024-02-14T03:35:07;3.80;;;2.57;;
15818;SDS011;8010;53.986;12.106;2024-02-14T03:37:35;5.73;;;2.00;;
15818;SDS011;8010;53.986;12.106;2024-02-14T03:40:02;3.83;;;2.07;;
15818;SDS011;8010;53.986;12.106;2024-02-14T03:42:29;5.83;;;2.40;;
15818;SDS011;8010;53.986;12.106;2024-02-14T03:44:55;3.37;;;2.40;;
15818;SDS011;8010;53.986;12.106;2024-02-14T03:47:27;3.40;;;2.40;;
15818;SDS011;8010;53.986;12.106;2024-02-14T03:49:54;4.67;;;2.10;;
15818;SDS011;8010;53.986;12.106;2024-02-14T03:52:19;4.93;;;2.57;;
15818;SDS011;8010;53.986;12.106;2024-02-14T03:54:47;3.17;;;2.27;;
15818;SDS011;8010;53.986;12.106;2024-02-14T03:57:13;4.47;;;1.90;;
15818;SDS011;8010;53.986;12.106;2024-02-14T03:59:38;5.73;;;2.43;;
15818;SDS011;8010;53.986;12.106;2024-02-14T04:02:05;3.07;;;2.23;;
15818;SDS011;8010;53.986;12.106;2024-02-14T04:04:34;4.00;;;2.20;;
15818;SDS011;8010;53.986;12.106;2024-02-14T04:07:01;4.93;;;2.03;;
15818;SDS011;8010;53.986;12.106;2024-02-14T04:09:27;5.67;;;2.57;;
15818;SDS011;8010;53.986;12.106;2024-02-14T04:11:53;5.37;;;2.10;;
15818;SDS011;8010;53.986;12.106;2024-02-14T04:14:18;3.13;;;2.30;;
15818;SDS011;8010;53.986;12.106;2024-02-14T04:16:44;4.20;;;2.50;;
15818;SDS011;8010;53.986;12.106;2024-02-14T04:19:09;2.60;;;2.00;;
15818;SDS011;8010;53.986;12.106;2024-02-14T04:21:36;4.07;;;2.37;;
15818;SDS011;8010;53.986;12.106;2024-02-14T04:24:02;6.00;;;2.50;;
15818;SDS011;8010;53.986;12.106;2024-02-14T04:26:28;5.53;;;2.40;;
15818;SDS011;8010;53.986;12.106;2024-02-14T04:28:54;4.67;;;2.80;;
15818;SDS011;8010;53.986;12.106;2024-02-14T04:31:20;3.83;;;2.33;;
15818;SDS011;8010;53.986;12.106;2024-02-14T04:33:45;7.70;;;2.77;;
15818;SDS011;8010;53.986;12.106;2024-02-14T04:36:16;4.63;;;2.30;;
15818;SDS011;8010;53.986;12.106;2024-02-14T04:38:43;5.87;;;2.60;;
15818;SDS011;8010;53.986;12.106;2024-02-14T04:41:09;5.30;;;2.63;;
15818;SDS011;8010;53.986;12.106;2024-02-14T04:43:35;4.23;;;2.53;;
15818;SDS011;8010;53.986;12.106;2024-02-14T04:46:01;4.17;;;2.60;;
15818;SDS011;8010;53.986;12.106;2024-02-14T04:48:26;4.93;;;2.40;;
15818;SDS011;8010;53.986;12.106;2024-02-14T04:50:52;5.50;;;2.57;;
15818;SDS011;8010;53.986;12.106;2024-02-14T04:53:18;2.77;;;2.20;;
15818;SDS011;8010;53.986;12.106;2024-02-14T04:55:44;2.73;;;2.07;;
15818;SDS011;8010;53.986;12.106;2024-02-14T04:58:10;3.17;;;2.60;;
15818;SDS011;8010;53.986;12.106;2024-02-14T05:00:35;3.83;;;2.07;;
15818;SDS011;8010;53.986;12.106;2024-02-14T05:03:01;3.20;;;2.13;;
15818;SDS011;8010;53.986;12.106;2024-02-14T05:05:26;3.50;;;2.20;;
15818;SDS011;8010;53.986;12.106;2024-02-14T05:07:53;4.00;;;2.43;;
15818;SDS011;8010;53.986;12.106;2024-02-14T05:10:18;3.10;;;2.20;;
15818;SDS011;8010;53.986;12.106;2024-02-14T05:12:44;3.63;;;2.80;;
15818;SDS011;8010;53.986;12.106;2024-02-14T05:15:09;4.23;;;2.80;;
15818;SDS011;8010;53.986;12.106;2024-02-14T05:17:37;6.73;;;3.23;;
15818;SDS011;8010;53.986;12.106;2024-02-14T05:20:02;8.57;;;7.03;;
15818;SDS011;8010;53.986;12.106;2024-02-14T05:22:33;8.80;;;5.63;;
15818;SDS011;8010;53.986;12.106;2024-02-14T05:25:01;8.67;;;5.67;;
15818;SDS011;8010;53.986;12.106;2024-02-14T05:27:26;4.77;;;4.17;;
15818;SDS011;8010;53.986;12.106;2024-02-14T05:29:52;4.67;;;4.10;;
15818;SDS011;8010;53.986;12.106;2024-02-14T05:32:17;5.30;;;3.77;;
15818;SDS011;8010;53.986;12.106;2024-02-14T05:34:43;5.30;;;3.43;;
15818;SDS011;8010;53.986;12.106;2024-02-14T05:37:08;8.17;;;4.20;;
15818;SDS011;8010;53.986;12.106;2024-02-14T05:39:34;6.67;;;4.03;;
15818;SDS011;8010;53.986;12.106;2024-02-14T05:41:59;4.70;;;3.60;;
15818;SDS011;8010;53.986;12.106;2024-02-14T05:44:25;7.20;;;4.10;;
15818;SDS011;8010;53.986;12.106;2024-02-14T05:46:52;6.47;;;3.37;;
15818;SDS011;8010;53.986;12.106;2024-02-14T05:49:18;5.37;;;3.00;;
15818;SDS011;8010;53.986;12.106;2024-02-14T05:51:43;5.87;;;2.73;;
15818;SDS011;8010;53.986;12.106;2024-02-14T05:54:09;4.83;;;3.00;;
15818;SDS011;8010;53.986;12.106;2024-02-14T05:56:34;7.80;;;3.17;;
15818;SDS011;8010;53.986;12.106;2024-02-14T05:59:00;6.67;;;3.40;;
15818;SDS011;8010;53.986;12.106;2024-02-14T06:01:25;7.17;;;3.17;;
15818;SDS011;8010;53.986;12.106;2024-02-14T06:03:51;5.00;;;3.57;;
15818;SDS011;8010;53.986;12.106;2024-02-14T06:06:16;5.50;;;3.90;;
15818;SDS011;8010;53.986;12.106;2024-02-14T06:08:42;6.90;;;5.37;;
15818;SDS011;8010;53.986;12.106;2024-02-14T06:11:07;6.10;;;4.90;;
15818;SDS011;8010;53.986;12.106;2024-02-14T06:13:33;7.33;;;4.47;;
15818;SDS011;8010;53.986;12.106;2024-02-14T06:16:00;7.13;;;4.43;;
15818;SDS011;8010;53.986;12.106;2024-02-14T06:18:26;5.53;;;4.70;;
15818;SDS011;8010;53.986;12.106;2024-02-14T06:20:51;6.47;;;4.53;;
15818;SDS011;8010;53.986;12.106;2024-02-14T06:23:17;6.40;;;3.73;;
15818;SDS011;8010;53.986;12.106;2024-02-14T06:25:43;5.93;;;3.43;;
15818;SDS011;8010;53.986;12.106;2024-02-14T06:28:08;4.67;;;3.67;;
15818;SDS011;8010;53.986;12.106;2024-02-14T06:30:34;4.63;;;3.60;;
15818;SDS011;8010;53.986;12.106;2024-02-14T06:33:00;5.50;;;3.60;;
15818;SDS011;8010;53.986;12.106;2024-02-14T06:35:27;4.80;;;3.23;;
15818;SDS011;8010;53.986;12.106;2024-02-14T06:37:53;4.83;;;2.83;;
15818;SDS011;8010;53.986;12.106;2024-02-14T06:40:19;5.20;;;3.77;;
15818;SDS011;8010;53.986;12.106;2024-02-14T06:42:45;6.43;;;3.87;;
15818;SDS011;8010;53.986;12.106;2024-02-14T06:45:11;6.83;;;3.60;;
15818;SDS011;8010;53.986;12.106;2024-02-14T06:47:36;5.93;;;3.87;;
15818;SDS011;8010;53.986;12.106;2024-02-14T06:50:02;5.47;;;3.30;;
15818;SDS011;8010;53.986;12.106;2024-02-14T06:52:28;6.30;;;3.57;;
15818;SDS011;8010;53.986;12.106;2024-02-14T06:54:53;4.27;;;3.87;;
15818;SDS011;8010;53.986;12.106;2024-02-14T06:57:19;9.20;;;4.37;;
15818;SDS011;8010;53.986;12.106;2024-02-14T06:59:44;4.73;;;3.73;;
15818;SDS011;8010;53.986;12.106;2024-02-14T07:02:10;6.83;;;3.90;;
15818;SDS011;8010;53.986;12.106;2024-02-14T07:04:36;8.10;;;4.00;;
15818;SDS011;8010;53.986;12.106;2024-02-14T07:07:02;5.87;;;3.70;;
15818;SDS011;8010;53.986;12.106;2024-02-14T07:09:27;5.30;;;3.60;;
15818;SDS011;8010;53.986;12.106;2024-02-14T07:11:54;5.53;;;4.00;;
15818;SDS011;8010;53.986;12.106;2024-02-14T07:14:21;7.13;;;3.53;;
15818;SDS011;8010;53.986;12.106;2024-02-14T07:16:47;5.70;;;3.70;;
15818;SDS011;8010;53.986;12.106;2024-02-14T07:19:12;6.60;;;4.33;;
15818;SDS011;8010;53.986;12.106;2024-02-14T07:21:38;5.33;;;3.60;;
15818;SDS011;8010;53.986;12.106;2024-02-14T07:24:04;6.20;;;3.50;;
15818;SDS011;8010;53.986;12.106;2024-02-14T07:26:30;4.33;;;3.63;;
15818;SDS011;8010;53.986;12.106;2024-02-14T07:28:56;6.60;;;3.47;;
15818;SDS011;8010;53.986;12.106;2024-02-14T07:31:21;4.73;;;3.73;;
15818;SDS011;8010;53.986;12.106;2024-02-14T07:33:47;6.57;;;4.27;;
15818;SDS011;8010;53.986;12.106;2024-02-14T07:36:13;5.73;;;3.77;;
15818;SDS011;8010;53.986;12.106;2024-02-14T07:38:39;6.30;;;3.80;;
15818;SDS011;8010;53.986;12.106;2024-02-14T07:41:04;5.10;;;3.90;;
15818;SDS011;8010;53.986;12.106;2024-02-14T07:43:30;5.07;;;3.70;;
15818;SDS011;8010;53.986;12.106;2024-02-14T07:45:55;6.03;;;4.20;;
15818;SDS011;8010;53.986;12.106;2024-02-14T07:48:21;7.67;;;4.60;;
15818;SDS011;8010;53.986;12.106;2024-02-14T07:50:47;5.23;;;4.03;;
15818;SDS011;8010;53.986;12.106;2024-02-14T07:53:13;5.30;;;4.03;;
15818;SDS011;8010;53.986;12.106;2024-02-14T07:55:38;8.50;;;5.17;;
15818;SDS011;8010;53.986;12.106;2024-02-14T07:58:05;7.67;;;4.77;;
15818;SDS011;8010;53.986;12.106;2024-02-14T08:00:30;6.70;;;4.97;;
15818;SDS011;8010;53.986;12.106;2024-02-14T08:02:56;7.93;;;5.00;;
15818;SDS011;8010;53.986;12.106;2024-02-14T08:05:21;9.10;;;5.07;;
15818;SDS011;8010;53.986;12.106;2024-02-14T08:07:47;8.63;;;5.60;;
15818;SDS011;8010;53.986;12.106;2024-02-14T08:10:13;10.87;;;6.93;;
15818;SDS011;8010;53.986;12.106;2024-02-14T08:12:38;8.67;;;5.43;;
15818;SDS011;8010;53.986;12.106;2024-02-14T08:15:04;8.10;;;5.10;;
15818;SDS011;8010;53.986;12.106;2024-02-14T08:17:31;8.33;;;4.37;;
15818;SDS011;8010;53.986;12.106;2024-02-14T08:19:58;7.13;;;4.47;;
15818;SDS011;8010;53.986;12.106;2024-02-14T08:22:24;8.60;;;5.20;;
15818;SDS011;8010;53.986;12.106;2024-02-14T08:24:49;9.03;;;5.30;;
15818;SDS011;8010;53.986;12.106;2024-02-14T08:27:15;9.10;;;5.57;;
15818;SDS011;8010;53.986;12.106;2024-02-14T08:29:40;8.57;;;5.30;;
15818;SDS011;8010;53.986;12.106;2024-02-14T08:32:06;6.17;;;4.63;;
15818;SDS011;8010;53.986;12.106;2024-02-14T08:34:31;6.87;;;4.83;;
15818;SDS011;8010;53.986;12.106;2024-02-14T08:36:57;6.37;;;4.70;;
15818;SDS011;8010;53.986;12.106;2024-02-14T08:39:22;7.60;;;5.13;;
15818;SDS011;8010;53.986;12.106;2024-02-14T08:41:48;7.80;;;4.90;;
15818;SDS011;8010;53.986;12.106;2024-02-14T08:44:15;11.00;;;5.10;;
15818;SDS011;8010;53.986;12.106;2024-02-14T08:46:40;8.00;;;4.40;;
15818;SDS011;8010;53.986;12.106;2024-02-14T08:49:07;6.73;;;4.50;;
15818;SDS011;8010;53.986;12.106;2024-02-14T08:51:33;6.37;;;4.50;;
15818;SDS011;8010;53.986;12.106;2024-02-14T08:54:03;7.93;;;4.70;;
15818;SDS011;8010;53.986;12.106;2024-02-14T08:56:31;9.23;;;4.50;;
15818;SDS011;8010;53.986;12.106;2024-02-14T08:58:59;9.00;;;4.77;;
15818;SDS011;8010;53.986;12.106;2024-02-14T09:01:28;5.67;;;4.43;;
15818;SDS011;8010;53.986;12.106;2024-02-14T09:03:54;6.87;;;4.37;;
15818;SDS011;8010;53.986;12.106;2024-02-14T09:06:20;8.30;;;4.77;;
15818;SDS011;8010;53.986;12.106;2024-02-14T09:08:46;8.07;;;4.33;;
15818;SDS011;8010;53.986;12.106;2024-02-14T09:11:12;6.70;;;4.10;;
15818;SDS011;8010;53.986;12.106;2024-02-14T09:13:38;5.23;;;3.87;;
15818;SDS011;8010;53.986;12.106;2024-02-14T09:16:05;9.70;;;5.40;;
15818;SDS011;8010;53.986;12.106;2024-02-14T09:18:32;8.00;;;4.93;;
15818;SDS011;8010;53.986;12.106;2024-02-14T09:20:58;7.57;;;4.37;;
15818;SDS011;8010;53.986;12.106;2024-02-14T09:23:23;10.37;;;4.70;;
15818;SDS011;8010;53.986;12.106;2024-02-14T09:25:49;7.47;;;4.60;;
15818;SDS011;8010;53.986;12.106;2024-02-14T09:28:18;9.67;;;4.20;;
15818;SDS011;8010;53.986;12.106;2024-02-14T09:30:44;7.50;;;5.37;;
15818;SDS011;8010;53.986;12.106;2024-02-14T09:33:10;9.17;;;5.03;;
15818;SDS011;8010;53.986;12.106;2024-02-14T09:35:35;8.07;;;4.90;;
15818;SDS011;8010;53.986;12.106;2024-02-14T09:38:03;7.93;;;4.50;;
15818;SDS011;8010;53.986;12.106;2024-02-14T09:40:29;7.10;;;4.93;;
15818;SDS011;8010;53.986;12.106;2024-02-14T09:42:55;10.03;;;5.03;;
15818;SDS011;8010;53.986;12.106;2024-02-14T09:45:25;6.73;;;4.83;;
15818;SDS011;8010;53.986;12.106;2024-02-14T09:47:52;6.83;;;5.00;;
15818;SDS011;8010;53.986;12.106;2024-02-14T09:50:19;8.50;;;5.23;;
15818;SDS011;8010;53.986;12.106;2024-02-14T09:52:46;7.20;;;4.87;;
15818;SDS011;8010;53.986;12.106;2024-02-14T09:55:13;5.80;;;4.60;;
15818;SDS011;8010;53.986;12.106;2024-02-14T09:57:40;7.57;;;4.83;;
15818;SDS011;8010;53.986;12.106;2024-02-14T10:00:10;9.30;;;4.70;;
15818;SDS011;8010;53.986;12.106;2024-02-14T10:02:36;8.27;;;5.23;;
15818;SDS011;8010;53.986;12.106;2024-02-14T10:05:03;7.73;;;4.80;;
15818;SDS011;8010;53.986;12.106;2024-02-14T10:07:28;7.63;;;5.37;;
15818;SDS011;8010;53.986;12.106;2024-02-14T10:09:54;7.67;;;4.90;;
15818;SDS011;8010;53.986;12.106;2024-02-14T10:12:30;9.87;;;5.17;;
15818;SDS011;8010;53.986;12.106;2024-02-14T10:14:55;9.20;;;5.07;;
15818;SDS011;8010;53.986;12.106;2024-02-14T10:17:21;8.63;;;5.37;;
15818;SDS011;8010;53.986;12.106;2024-02-14T10:19:56;10.50;;;5.33;;
15818;SDS011;8010;53.986;12.106;2024-02-14T10:22:34;10.20;;;5.67;;
15818;SDS011;8010;53.986;12.106;2024-02-14T10:25:03;8.70;;;5.03;;
15818;SDS011;8010;53.986;12.106;2024-02-14T10:27:33;7.17;;;4.77;;
15818;SDS011;8010;53.986;12.106;2024-02-14T10:30:04;8.13;;;5.23;;
15818;SDS011;8010;53.986;12.106;2024-02-14T10:32:37;7.57;;;5.00;;
15818;SDS011;8010;53.986;12.106;2024-02-14T10:35:06;5.37;;;4.47;;
15818;SDS011;8010;53.986;12.106;2024-02-14T10:37:36;6.10;;;4.60;;
15818;SDS011;8010;53.986;12.106;2024-02-14T10:40:03;8.07;;;5.30;;
15818;SDS011;8010;53.986;12.106;2024-02-14T10:42:30;7.63;;;4.60;;
15818;SDS011;8010;53.986;12.106;2024-02-14T10:44:56;7.03;;;4.40;;
15818;SDS011;8010;53.986;12.106;2024-02-14T10:47:23;9.00;;;5.07;;
15818;SDS011;8010;53.986;12.106;2024-02-14T10:49:53;6.37;;;4.63;;
15818;SDS011;8010;53.986;12.106;2024-02-14T10:52:27;9.27;;;4.83;;
15818;SDS011;8010;53.986;12.106;2024-02-14T10:54:58;7.30;;;5.10;;
15818;SDS011;8010;53.986;12.106;2024-02-14T10:57:26;9.27;;;5.73;;
15818;SDS011;8010;53.986;12.106;2024-02-14T10:59:54;8.30;;;4.80;;
15818;SDS011;8010;53.986;12.106;2024-02-14T11:02:20;8.23;;;5.27;;
15818;SDS011;8010;53.986;12.106;2024-02-14T11:04:47;7.33;;;4.70;;
15818;SDS011;8010;53.986;12.106;2024-02-14T11:07:18;10.30;;;5.47;;
15818;SDS011;8010;53.986;12.106;2024-02-14T11:09:44;7.60;;;4.87;;
15818;SDS011;8010;53.986;12.106;2024-02-14T11:12:10;8.00;;;4.63;;
15818;SDS011;8010;53.986;12.106;2024-02-14T11:14:36;8.40;;;6.70;;
15818;SDS011;8010;53.986;12.106;2024-02-14T11:17:04;7.63;;;4.83;;
15818;SDS011;8010;53.986;12.106;2024-02-14T11:19:34;6.77;;;4.60;;
15818;SDS011;8010;53.986;12.106;2024-02-14T11:22:11;6.77;;;4.63;;
15818;SDS011;8010;53.986;12.106;2024-02-14T11:24:40;7.00;;;5.10;;
15818;SDS011;8010;53.986;12.106;2024-02-14T11:27:09;6.70;;;5.10;;
15818;SDS011;8010;53.986;12.106;2024-02-14T11:29:38;6.47;;;4.47;;
15818;SDS011;8010;53.986;12.106;2024-02-14T11:32:05;7.17;;;4.90;;
15818;SDS011;8010;53.986;12.106;2024-02-14T11:34:33;7.77;;;4.87;;
15818;SDS011;8010;53.986;12.106;2024-02-14T11:36:59;6.23;;;4.37;;
15818;SDS011;8010;53.986;12.106;2024-02-14T11:39:25;6.90;;;4.83;;
15818;SDS011;8010;53.986;12.106;2024-02-14T11:41:50;6.77;;;4.40;;
15818;SDS011;8010;53.986;12.106;2024-02-14T11:44:16;7.37;;;5.00;;
15818;SDS011;8010;53.986;12.106;2024-02-14T11:46:43;5.33;;;4.07;;
15818;SDS011;8010;53.986;12.106;2024-02-14T11:49:09;6.77;;;4.27;;
15818;SDS011;8010;53.986;12.106;2024-02-14T11:51:34;6.67;;;4.90;;
15818;SDS011;8010;53.986;12.106;2024-02-14T11:54:04;7.27;;;4.13;;
15818;SDS011;8010;53.986;12.106;2024-02-14T11:56:32;9.07;;;4.43;;
15818;SDS011;8010;53.986;12.106;2024-02-14T11:59:01;6.53;;;4.70;;
15818;SDS011;8010;53.986;12.106;2024-02-14T12:01:28;6.07;;;4.33;;
15818;SDS011;8010;53.986;12.106;2024-02-14T12:03:56;7.33;;;4.40;;
15818;SDS011;8010;53.986;12.106;2024-02-14T12:06:23;7.20;;;4.70;;
15818;SDS011;8010;53.986;12.106;2024-02-14T12:08:49;5.87;;;4.43;;
15818;SDS011;8010;53.986;12.106;2024-02-14T12:11:15;6.07;;;4.03;;
15818;SDS011;8010;53.986;12.106;2024-02-14T12:13:42;7.40;;;4.70;;
15818;SDS011;8010;53.986;12.106;2024-02-14T12:16:08;7.87;;;4.90;;
15818;SDS011;8010;53.986;12.106;2024-02-14T12:18:35;6.77;;;4.20;;
15818;SDS011;8010;53.986;12.106;2024-02-14T12:21:04;7.63;;;4.50;;
15818;SDS011;8010;53.986;12.106;2024-02-14T12:23:34;6.60;;;4.43;;
15818;SDS011;8010;53.986;12.106;2024-02-14T12:26:03;5.97;;;4.27;;
15818;SDS011;8010;53.986;12.106;2024-02-14T12:28:32;6.63;;;4.40;;
15818;SDS011;8010;53.986;12.106;2024-02-14T12:30:58;5.57;;;4.33;;
15818;SDS011;8010;53.986;12.106;2024-02-14T12:33:24;5.23;;;4.13;;
15818;SDS011;8010;53.986;12.106;2024-02-14T12:35:52;5.43;;;4.23;;
15818;SDS011;8010;53.986;12.106;2024-02-14T12:38:19;7.03;;;4.93;;
15818;SDS011;8010;53.986;12.106;2024-02-14T12:40:45;7.03;;;4.33;;
15818;SDS011;8010;53.986;12.106;2024-02-14T12:43:12;10.00;;;4.60;;
15818;SDS011;8010;53.986;12.106;2024-02-14T12:45:39;5.77;;;4.50;;
15818;SDS011;8010;53.986;12.106;2024-02-14T12:48:05;6.73;;;5.03;;
15818;SDS011;8010;53.986;12.106;2024-02-14T12:50:35;6.53;;;5.07;;
15818;SDS011;8010;53.986;12.106;2024-02-14T12:53:02;8.60;;;4.40;;
15818;SDS011;8010;53.986;12.106;2024-02-14T12:55:32;6.27;;;4.70;;
15818;SDS011;8010;53.986;12.106;2024-02-14T12:57:58;6.63;;;4.40;;
15818;SDS011;8010;53.986;12.106;2024-02-14T13:00:24;6.27;;;4.77;;
15818;SDS011;8010;53.986;12.106;2024-02-14T13:02:49;10.67;;;4.87;;
15818;SDS011;8010;53.986;12.106;2024-02-14T13:05:15;8.00;;;4.73;;
15818;SDS011;8010;53.986;12.106;2024-02-14T13:07:41;6.07;;;3.87;;
15818;SDS011;8010;53.986;12.106;2024-02-14T13:10:08;5.27;;;4.03;;
15818;SDS011;8010;53.986;12.106;2024-02-14T13:12:39;6.17;;;4.23;;
15818;SDS011;8010;53.986;12.106;2024-02-14T13:15:05;5.73;;;3.93;;
15818;SDS011;8010;53.986;12.106;2024-02-14T13:17:31;7.60;;;4.10;;
15818;SDS011;8010;53.986;12.106;2024-02-14T13:19:56;5.57;;;4.23;;
15818;SDS011;8010;53.986;12.106;2024-02-14T13:22:24;5.30;;;3.93;;
15818;SDS011;8010;53.986;12.106;2024-02-14T13:24:50;5.37;;;4.43;;
15818;SDS011;8010;53.986;12.106;2024-02-14T13:27:15;5.30;;;4.07;;
15818;SDS011;8010;53.986;12.106;2024-02-14T13:29:41;5.40;;;4.27;;
15818;SDS011;8010;53.986;12.106;2024-02-14T13:32:07;5.83;;;4.40;;
15818;SDS011;8010;53.986;12.106;2024-02-14T13:34:33;5.40;;;4.00;;
15818;SDS011;8010;53.986;12.106;2024-02-14T13:36:59;6.77;;;4.50;;
15818;SDS011;8010;53.986;12.106;2024-02-14T13:39:25;6.50;;;4.40;;
15818;SDS011;8010;53.986;12.106;2024-02-14T13:41:51;5.13;;;3.97;;
15818;SDS011;8010;53.986;12.106;2024-02-14T13:44:17;6.70;;;4.17;;
15818;SDS011;8010;53.986;12.106;2024-02-14T13:46:43;8.37;;;4.57;;
15818;SDS011;8010;53.986;12.106;2024-02-14T13:49:10;6.17;;;4.03;;
15818;SDS011;8010;53.986;12.106;2024-02-14T13:51:36;6.43;;;4.47;;
15818;SDS011;8010;53.986;12.106;2024-02-14T13:54:02;6.83;;;4.53;;
15818;SDS011;8010;53.986;12.106;2024-02-14T13:56:28;5.97;;;4.63;;
15818;SDS011;8010;53.986;12.106;2024-02-14T13:58:54;4.83;;;4.00;;
15818;SDS011;8010;53.986;12.106;2024-02-14T14:01:19;6.10;;;4.00;;
15818;SDS011;8010;53.986;12.106;2024-02-14T14:03:45;5.73;;;4.10;;
15818;SDS011;8010;53.986;12.106;2024-02-14T14:06:12;5.50;;;4.13;;
15818;SDS011;8010;53.986;12.106;2024-02-14T14:08:38;7.97;;;4.13;;
15818;SDS011;8010;53.986;12.106;2024-02-14T14:11:04;6.37;;;3.87;;
15818;SDS011;8010;53.986;12.106;2024-02-14T14:13:30;4.73;;;4.20;;
15818;SDS011;8010;53.986;12.106;2024-02-14T14:15:58;7.27;;;4.20;;
15818;SDS011;8010;53.986;12.106;2024-02-14T14:18:24;4.67;;;4.10;;
15818;SDS011;8010;53.986;12.106;2024-02-14T14:20:50;4.70;;;3.97;;
15818;SDS011;8010;53.986;12.106;2024-02-14T14:23:15;5.20;;;4.33;;
15818;SDS011;8010;53.986;12.106;2024-02-14T14:25:41;5.03;;;3.73;;
15818;SDS011;8010;53.986;12.106;2024-02-14T14:28:07;4.03;;;3.57;;
15818;SDS011;8010;53.986;12.106;2024-02-14T14:30:34;5.10;;;3.70;;
15818;SDS011;8010;53.986;12.106;2024-02-14T14:33:00;8.27;;;4.03;;
15818;SDS011;8010;53.986;12.106;2024-02-14T14:35:26;5.50;;;4.40;;
15818;SDS011;8010;53.986;12.106;2024-02-14T14:37:51;4.57;;;4.00;;
15818;SDS011;8010;53.986;12.106;2024-02-14T14:40:17;6.03;;;4.40;;
15818;SDS011;8010;53.986;12.106;2024-02-14T14:42:42;4.93;;;3.73;;